sensor_id;sensor_type;location;lat;lon;timestamp;P1;durP1;ratioP1;P2;durP2;ratioP2
49458;SDS011;35354;51.296;16.924;2023-07-31T00:02:19;4.10;;;3.30;;
49458;SDS011;35354;51.296;16.924;2023-07-31T00:04:44;3.78;;;3.00;;
49458;SDS011;35354;51.296;16.924;2023-07-31T00:07:10;5.10;;;3.50;;
49458;SDS011;35354;51.296;16.924;2023-07-31T00:09:36;3.85;;;3.28;;
49458;SDS011;35354;51.296;16.924;2023-07-31T00:12:01;4.28;;;3.63;;
49458;SDS011;35354;51.296;16.924;2023-07-31T00:14:27;4.57;;;3.30;;
49458;SDS011;35354;51.296;16.924;2023-07-31T00:16:52;3.85;;;3.45;;
49458;SDS011;35354;51.296;16.924;2023-07-31T00:19:18;3.58;;;3.15;;
49458;SDS011;35354;51.296;16.924;2023-07-31T00:21:44;3.92;;;3.50;;
49458;SDS011;35354;51.296;16.924;2023-07-31T00:24:09;3.90;;;3.35;;
49458;SDS011;35354;51.296;16.924;2023-07-31T00:26:34;3.90;;;3.45;;
49458;SDS011;35354;51.296;16.924;2023-07-31T00:29:00;4.07;;;3.20;;
49458;SDS011;35354;51.296;16.924;2023-07-31T00:31:25;5.78;;;3.10;;
49458;SDS011;35354;51.296;16.924;2023-07-31T00:33:50;6.07;;;3.33;;
49458;SDS011;35354;51.296;16.924;2023-07-31T00:36:16;3.80;;;2.92;;
49458;SDS011;35354;51.296;16.924;2023-07-31T00:38:43;3.80;;;3.20;;
49458;SDS011;35354;51.296;16.924;2023-07-31T00:41:08;4.75;;;3.28;;
49458;SDS011;35354;51.296;16.924;2023-07-31T00:43:33;5.20;;;3.60;;
49458;SDS011;35354;51.296;16.924;2023-07-31T00:45:59;4.80;;;3.67;;
49458;SDS011;35354;51.296;16.924;2023-07-31T00:48:24;5.15;;;3.42;;
49458;SDS011;35354;51.296;16.924;2023-07-31T00:50:50;5.43;;;3.53;;
49458;SDS011;35354;51.296;16.924;2023-07-31T00:53:15;4.65;;;2.90;;
49458;SDS011;35354;51.296;16.924;2023-07-31T00:55:41;5.22;;;3.55;;
49458;SDS011;35354;51.296;16.924;2023-07-31T00:58:07;5.93;;;3.80;;
49458;SDS011;35354;51.296;16.924;2023-07-31T01:00:33;3.42;;;3.13;;
49458;SDS011;35354;51.296;16.924;2023-07-31T01:02:58;7.28;;;3.90;;
49458;SDS011;35354;51.296;16.924;2023-07-31T01:05:25;5.72;;;3.40;;
49458;SDS011;35354;51.296;16.924;2023-07-31T01:08:04;6.30;;;3.78;;
49458;SDS011;35354;51.296;16.924;2023-07-31T01:10:49;4.07;;;3.67;;
49458;SDS011;35354;51.296;16.924;2023-07-31T01:13:19;5.13;;;3.67;;
49458;SDS011;35354;51.296;16.924;2023-07-31T01:15:44;5.90;;;4.03;;
49458;SDS011;35354;51.296;16.924;2023-07-31T01:18:09;7.90;;;3.50;;
49458;SDS011;35354;51.296;16.924;2023-07-31T01:20:35;7.13;;;4.05;;
49458;SDS011;35354;51.296;16.924;2023-07-31T01:28:47;4.32;;;3.47;;
49458;SDS011;35354;51.296;16.924;2023-07-31T01:31:25;4.18;;;3.10;;
49458;SDS011;35354;51.296;16.924;2023-07-31T01:33:54;4.13;;;3.45;;
49458;SDS011;35354;51.296;16.924;2023-07-31T01:36:24;4.53;;;4.05;;
49458;SDS011;35354;51.296;16.924;2023-07-31T01:38:50;6.28;;;4.18;;
49458;SDS011;35354;51.296;16.924;2023-07-31T01:41:16;3.60;;;3.28;;
49458;SDS011;35354;51.296;16.924;2023-07-31T01:43:42;3.95;;;3.60;;
49458;SDS011;35354;51.296;16.924;2023-07-31T01:46:08;3.60;;;3.30;;
49458;SDS011;35354;51.296;16.924;2023-07-31T01:48:33;4.07;;;3.50;;
49458;SDS011;35354;51.296;16.924;2023-07-31T01:51:01;4.63;;;3.58;;
49458;SDS011;35354;51.296;16.924;2023-07-31T01:53:27;5.93;;;3.60;;
49458;SDS011;35354;51.296;16.924;2023-07-31T01:55:53;4.15;;;3.38;;
49458;SDS011;35354;51.296;16.924;2023-07-31T01:58:18;3.72;;;3.35;;
49458;SDS011;35354;51.296;16.924;2023-07-31T02:00:44;8.07;;;3.65;;
49458;SDS011;35354;51.296;16.924;2023-07-31T02:03:09;4.75;;;3.53;;
49458;SDS011;35354;51.296;16.924;2023-07-31T02:05:34;6.15;;;3.47;;
49458;SDS011;35354;51.296;16.924;2023-07-31T02:07:59;3.95;;;3.53;;
49458;SDS011;35354;51.296;16.924;2023-07-31T02:10:25;5.22;;;3.67;;
49458;SDS011;35354;51.296;16.924;2023-07-31T02:12:50;3.40;;;3.10;;
49458;SDS011;35354;51.296;16.924;2023-07-31T02:15:15;5.40;;;3.60;;
49458;SDS011;35354;51.296;16.924;2023-07-31T02:17:41;5.63;;;3.60;;
49458;SDS011;35354;51.296;16.924;2023-07-31T02:20:06;4.63;;;3.00;;
49458;SDS011;35354;51.296;16.924;2023-07-31T02:22:32;6.28;;;3.50;;
49458;SDS011;35354;51.296;16.924;2023-07-31T02:24:57;4.63;;;3.65;;
49458;SDS011;35354;51.296;16.924;2023-07-31T02:27:23;3.60;;;3.15;;
49458;SDS011;35354;51.296;16.924;2023-07-31T02:29:52;6.40;;;3.20;;
49458;SDS011;35354;51.296;16.924;2023-07-31T02:32:17;6.47;;;3.75;;
49458;SDS011;35354;51.296;16.924;2023-07-31T02:34:42;5.55;;;3.80;;
49458;SDS011;35354;51.296;16.924;2023-07-31T02:37:08;5.00;;;3.45;;
49458;SDS011;35354;51.296;16.924;2023-07-31T02:39:33;6.85;;;3.50;;
49458;SDS011;35354;51.296;16.924;2023-07-31T02:41:59;6.03;;;3.30;;
49458;SDS011;35354;51.296;16.924;2023-07-31T02:44:25;6.03;;;3.70;;
49458;SDS011;35354;51.296;16.924;2023-07-31T02:46:50;4.97;;;3.38;;
49458;SDS011;35354;51.296;16.924;2023-07-31T02:49:16;4.47;;;3.33;;
49458;SDS011;35354;51.296;16.924;2023-07-31T02:51:41;5.07;;;3.90;;
49458;SDS011;35354;51.296;16.924;2023-07-31T02:54:06;5.55;;;3.58;;
49458;SDS011;35354;51.296;16.924;2023-07-31T02:56:32;5.10;;;3.28;;
49458;SDS011;35354;51.296;16.924;2023-07-31T02:58:57;4.72;;;3.70;;
49458;SDS011;35354;51.296;16.924;2023-07-31T03:01:22;6.32;;;3.47;;
49458;SDS011;35354;51.296;16.924;2023-07-31T03:03:48;4.53;;;3.40;;
49458;SDS011;35354;51.296;16.924;2023-07-31T03:06:13;3.92;;;3.10;;
49458;SDS011;35354;51.296;16.924;2023-07-31T03:08:38;7.10;;;3.35;;
49458;SDS011;35354;51.296;16.924;2023-07-31T03:11:03;7.03;;;4.10;;
49458;SDS011;35354;51.296;16.924;2023-07-31T03:13:29;7.50;;;4.03;;
49458;SDS011;35354;51.296;16.924;2023-07-31T03:15:54;4.22;;;3.38;;
49458;SDS011;35354;51.296;16.924;2023-07-31T03:18:19;4.43;;;3.25;;
49458;SDS011;35354;51.296;16.924;2023-07-31T03:20:45;5.07;;;3.20;;
49458;SDS011;35354;51.296;16.924;2023-07-31T03:23:10;7.60;;;3.45;;
49458;SDS011;35354;51.296;16.924;2023-07-31T03:25:35;4.43;;;3.53;;
49458;SDS011;35354;51.296;16.924;2023-07-31T03:28:02;6.43;;;3.60;;
49458;SDS011;35354;51.296;16.924;2023-07-31T03:30:27;4.85;;;3.75;;
49458;SDS011;35354;51.296;16.924;2023-07-31T03:32:52;4.80;;;3.53;;
49458;SDS011;35354;51.296;16.924;2023-07-31T03:35:18;6.50;;;3.72;;
49458;SDS011;35354;51.296;16.924;2023-07-31T03:37:43;4.75;;;3.53;;
49458;SDS011;35354;51.296;16.924;2023-07-31T03:40:09;4.47;;;3.10;;
49458;SDS011;35354;51.296;16.924;2023-07-31T03:42:34;6.00;;;3.80;;
49458;SDS011;35354;51.296;16.924;2023-07-31T03:45:00;5.35;;;3.42;;
49458;SDS011;35354;51.296;16.924;2023-07-31T03:47:25;7.75;;;4.00;;
49458;SDS011;35354;51.296;16.924;2023-07-31T03:49:51;3.53;;;3.10;;
49458;SDS011;35354;51.296;16.924;2023-07-31T03:52:16;6.35;;;3.40;;
49458;SDS011;35354;51.296;16.924;2023-07-31T03:54:42;5.80;;;3.92;;
49458;SDS011;35354;51.296;16.924;2023-07-31T03:57:09;4.00;;;3.60;;
49458;SDS011;35354;51.296;16.924;2023-07-31T03:59:35;5.47;;;3.50;;
49458;SDS011;35354;51.296;16.924;2023-07-31T04:02:00;4.00;;;3.15;;
49458;SDS011;35354;51.296;16.924;2023-07-31T04:04:25;9.63;;;4.57;;
49458;SDS011;35354;51.296;16.924;2023-07-31T04:06:51;4.75;;;3.70;;
49458;SDS011;35354;51.296;16.924;2023-07-31T04:09:16;5.97;;;3.85;;
49458;SDS011;35354;51.296;16.924;2023-07-31T04:11:41;4.57;;;3.90;;
49458;SDS011;35354;51.296;16.924;2023-07-31T04:14:07;8.85;;;4.32;;
49458;SDS011;35354;51.296;16.924;2023-07-31T04:16:32;7.90;;;4.75;;
49458;SDS011;35354;51.296;16.924;2023-07-31T04:18:57;5.00;;;4.05;;
49458;SDS011;35354;51.296;16.924;2023-07-31T04:21:23;5.57;;;3.67;;
49458;SDS011;35354;51.296;16.924;2023-07-31T04:23:48;7.03;;;3.78;;
49458;SDS011;35354;51.296;16.924;2023-07-31T04:26:13;6.15;;;3.83;;
49458;SDS011;35354;51.296;16.924;2023-07-31T04:28:39;8.43;;;4.40;;
49458;SDS011;35354;51.296;16.924;2023-07-31T04:31:04;5.68;;;3.70;;
49458;SDS011;35354;51.296;16.924;2023-07-31T04:33:29;7.38;;;4.20;;
49458;SDS011;35354;51.296;16.924;2023-07-31T04:35:55;5.30;;;3.75;;
49458;SDS011;35354;51.296;16.924;2023-07-31T04:38:20;9.73;;;4.40;;
49458;SDS011;35354;51.296;16.924;2023-07-31T04:40:46;6.25;;;3.83;;
49458;SDS011;35354;51.296;16.924;2023-07-31T04:43:12;7.20;;;4.20;;
49458;SDS011;35354;51.296;16.924;2023-07-31T04:45:37;6.38;;;3.95;;
49458;SDS011;35354;51.296;16.924;2023-07-31T04:48:03;5.47;;;3.58;;
49458;SDS011;35354;51.296;16.924;2023-07-31T04:50:28;5.75;;;3.92;;
49458;SDS011;35354;51.296;16.924;2023-07-31T04:52:55;4.18;;;3.78;;
49458;SDS011;35354;51.296;16.924;2023-07-31T04:55:21;4.38;;;3.22;;
49458;SDS011;35354;51.296;16.924;2023-07-31T04:57:46;3.53;;;3.22;;
49458;SDS011;35354;51.296;16.924;2023-07-31T05:00:11;4.65;;;3.47;;
49458;SDS011;35354;51.296;16.924;2023-07-31T05:02:37;8.13;;;3.63;;
49458;SDS011;35354;51.296;16.924;2023-07-31T05:05:02;4.53;;;3.63;;
49458;SDS011;35354;51.296;16.924;2023-07-31T05:07:27;6.72;;;4.15;;
49458;SDS011;35354;51.296;16.924;2023-07-31T05:09:53;7.47;;;3.83;;
49458;SDS011;35354;51.296;16.924;2023-07-31T05:12:18;6.63;;;3.50;;
49458;SDS011;35354;51.296;16.924;2023-07-31T05:14:43;6.07;;;3.38;;
49458;SDS011;35354;51.296;16.924;2023-07-31T05:17:09;6.32;;;3.42;;
49458;SDS011;35354;51.296;16.924;2023-07-31T05:19:34;5.97;;;3.65;;
49458;SDS011;35354;51.296;16.924;2023-07-31T05:22:00;7.95;;;4.30;;
49458;SDS011;35354;51.296;16.924;2023-07-31T05:24:25;6.93;;;3.47;;
49458;SDS011;35354;51.296;16.924;2023-07-31T05:26:50;5.90;;;3.65;;
49458;SDS011;35354;51.296;16.924;2023-07-31T05:29:16;6.25;;;4.05;;
49458;SDS011;35354;51.296;16.924;2023-07-31T05:31:41;6.90;;;3.83;;
49458;SDS011;35354;51.296;16.924;2023-07-31T05:34:07;7.68;;;3.33;;
49458;SDS011;35354;51.296;16.924;2023-07-31T05:36:32;7.15;;;3.83;;
49458;SDS011;35354;51.296;16.924;2023-07-31T05:38:57;7.05;;;3.78;;
49458;SDS011;35354;51.296;16.924;2023-07-31T05:41:22;6.07;;;3.83;;
49458;SDS011;35354;51.296;16.924;2023-07-31T05:43:48;5.47;;;3.53;;
49458;SDS011;35354;51.296;16.924;2023-07-31T05:46:13;5.72;;;4.53;;
49458;SDS011;35354;51.296;16.924;2023-07-31T05:48:39;11.90;;;4.07;;
49458;SDS011;35354;51.296;16.924;2023-07-31T05:51:04;9.55;;;3.50;;
49458;SDS011;35354;51.296;16.924;2023-07-31T05:53:29;9.25;;;5.10;;
49458;SDS011;35354;51.296;16.924;2023-07-31T05:55:55;7.00;;;4.20;;
49458;SDS011;35354;51.296;16.924;2023-07-31T05:58:20;5.75;;;4.00;;
49458;SDS011;35354;51.296;16.924;2023-07-31T06:00:45;5.88;;;3.42;;
49458;SDS011;35354;51.296;16.924;2023-07-31T06:03:10;6.43;;;4.30;;
49458;SDS011;35354;51.296;16.924;2023-07-31T06:05:36;7.97;;;4.38;;
49458;SDS011;35354;51.296;16.924;2023-07-31T06:08:01;8.32;;;3.83;;
49458;SDS011;35354;51.296;16.924;2023-07-31T06:10:27;7.82;;;5.30;;
49458;SDS011;35354;51.296;16.924;2023-07-31T06:12:53;5.65;;;3.78;;
49458;SDS011;35354;51.296;16.924;2023-07-31T06:15:19;11.07;;;4.03;;
49458;SDS011;35354;51.296;16.924;2023-07-31T06:17:44;4.50;;;3.45;;
49458;SDS011;35354;51.296;16.924;2023-07-31T06:20:10;3.85;;;3.47;;
49458;SDS011;35354;51.296;16.924;2023-07-31T06:22:35;5.85;;;3.58;;
49458;SDS011;35354;51.296;16.924;2023-07-31T06:25:01;9.85;;;4.40;;
49458;SDS011;35354;51.296;16.924;2023-07-31T06:27:26;6.72;;;3.75;;
49458;SDS011;35354;51.296;16.924;2023-07-31T06:29:52;5.40;;;3.85;;
49458;SDS011;35354;51.296;16.924;2023-07-31T06:32:17;9.38;;;4.35;;
49458;SDS011;35354;51.296;16.924;2023-07-31T06:34:42;6.72;;;4.05;;
49458;SDS011;35354;51.296;16.924;2023-07-31T06:37:08;6.13;;;3.92;;
49458;SDS011;35354;51.296;16.924;2023-07-31T06:39:33;5.43;;;4.07;;
49458;SDS011;35354;51.296;16.924;2023-07-31T06:41:58;6.60;;;4.30;;
49458;SDS011;35354;51.296;16.924;2023-07-31T06:44:24;7.40;;;4.15;;
49458;SDS011;35354;51.296;16.924;2023-07-31T06:46:49;6.15;;;4.65;;
49458;SDS011;35354;51.296;16.924;2023-07-31T06:49:15;5.82;;;4.50;;
49458;SDS011;35354;51.296;16.924;2023-07-31T06:51:41;5.70;;;3.75;;
49458;SDS011;35354;51.296;16.924;2023-07-31T06:54:08;6.50;;;3.92;;
49458;SDS011;35354;51.296;16.924;2023-07-31T06:56:33;7.55;;;3.85;;
49458;SDS011;35354;51.296;16.924;2023-07-31T06:58:59;4.57;;;3.67;;
49458;SDS011;35354;51.296;16.924;2023-07-31T07:01:24;7.63;;;3.88;;
49458;SDS011;35354;51.296;16.924;2023-07-31T07:03:49;5.85;;;3.22;;
49458;SDS011;35354;51.296;16.924;2023-07-31T07:06:16;4.95;;;3.83;;
49458;SDS011;35354;51.296;16.924;2023-07-31T07:08:42;6.13;;;3.75;;
49458;SDS011;35354;51.296;16.924;2023-07-31T07:11:07;6.22;;;3.25;;
49458;SDS011;35354;51.296;16.924;2023-07-31T07:13:32;5.85;;;3.30;;
49458;SDS011;35354;51.296;16.924;2023-07-31T07:15:57;5.72;;;3.05;;
49458;SDS011;35354;51.296;16.924;2023-07-31T07:18:23;4.70;;;2.90;;
49458;SDS011;35354;51.296;16.924;2023-07-31T07:20:49;5.32;;;3.13;;
49458;SDS011;35354;51.296;16.924;2023-07-31T07:23:16;4.20;;;3.30;;
49458;SDS011;35354;51.296;16.924;2023-07-31T07:25:42;5.30;;;2.63;;
49458;SDS011;35354;51.296;16.924;2023-07-31T07:28:08;6.13;;;3.20;;
49458;SDS011;35354;51.296;16.924;2023-07-31T07:30:33;3.63;;;2.50;;
49458;SDS011;35354;51.296;16.924;2023-07-31T07:32:59;4.90;;;2.78;;
49458;SDS011;35354;51.296;16.924;2023-07-31T07:35:25;6.40;;;2.70;;
49458;SDS011;35354;51.296;16.924;2023-07-31T07:37:50;8.43;;;3.15;;
49458;SDS011;35354;51.296;16.924;2023-07-31T07:40:15;5.05;;;2.53;;
49458;SDS011;35354;51.296;16.924;2023-07-31T07:42:41;6.03;;;2.63;;
49458;SDS011;35354;51.296;16.924;2023-07-31T07:45:06;4.72;;;2.53;;
49458;SDS011;35354;51.296;16.924;2023-07-31T07:47:32;9.20;;;3.33;;
49458;SDS011;35354;51.296;16.924;2023-07-31T07:49:57;4.43;;;2.45;;
49458;SDS011;35354;51.296;16.924;2023-07-31T07:52:23;3.83;;;2.22;;
49458;SDS011;35354;51.296;16.924;2023-07-31T07:54:48;5.13;;;2.60;;
49458;SDS011;35354;51.296;16.924;2023-07-31T07:57:13;5.65;;;2.45;;
49458;SDS011;35354;51.296;16.924;2023-07-31T07:59:39;4.32;;;2.53;;
49458;SDS011;35354;51.296;16.924;2023-07-31T08:02:05;5.90;;;2.90;;
49458;SDS011;35354;51.296;16.924;2023-07-31T08:04:30;4.32;;;2.70;;
49458;SDS011;35354;51.296;16.924;2023-07-31T08:06:56;4.55;;;2.53;;
49458;SDS011;35354;51.296;16.924;2023-07-31T08:09:21;4.60;;;2.28;;
49458;SDS011;35354;51.296;16.924;2023-07-31T08:11:46;4.63;;;2.40;;
49458;SDS011;35354;51.296;16.924;2023-07-31T08:14:12;3.17;;;2.83;;
49458;SDS011;35354;51.296;16.924;2023-07-31T08:16:37;4.50;;;2.63;;
49458;SDS011;35354;51.296;16.924;2023-07-31T08:19:02;3.80;;;2.58;;
49458;SDS011;35354;51.296;16.924;2023-07-31T08:21:28;3.53;;;2.35;;
49458;SDS011;35354;51.296;16.924;2023-07-31T08:23:53;3.60;;;2.63;;
49458;SDS011;35354;51.296;16.924;2023-07-31T08:26:19;4.40;;;2.60;;
49458;SDS011;35354;51.296;16.924;2023-07-31T08:28:44;4.05;;;2.30;;
49458;SDS011;35354;51.296;16.924;2023-07-31T08:31:09;3.45;;;2.20;;
49458;SDS011;35354;51.296;16.924;2023-07-31T08:33:35;4.55;;;2.40;;
49458;SDS011;35354;51.296;16.924;2023-07-31T08:36:01;3.88;;;2.45;;
49458;SDS011;35354;51.296;16.924;2023-07-31T08:38:28;4.53;;;2.30;;
49458;SDS011;35354;51.296;16.924;2023-07-31T08:41:41;3.60;;;2.10;;
49458;SDS011;35354;51.296;16.924;2023-07-31T08:44:52;5.35;;;2.35;;
49458;SDS011;35354;51.296;16.924;2023-07-31T08:47:19;3.80;;;2.42;;
49458;SDS011;35354;51.296;16.924;2023-07-31T08:49:45;6.30;;;2.60;;
49458;SDS011;35354;51.296;16.924;2023-07-31T08:52:38;7.25;;;2.67;;
49458;SDS011;35354;51.296;16.924;2023-07-31T08:55:24;4.63;;;2.85;;
49458;SDS011;35354;51.296;16.924;2023-07-31T08:57:51;5.22;;;2.70;;
49458;SDS011;35354;51.296;16.924;2023-07-31T09:00:19;3.97;;;2.65;;
49458;SDS011;35354;51.296;16.924;2023-07-31T09:02:48;3.28;;;2.38;;
49458;SDS011;35354;51.296;16.924;2023-07-31T09:05:22;3.47;;;2.47;;
49458;SDS011;35354;51.296;16.924;2023-07-31T09:07:48;4.35;;;2.80;;
49458;SDS011;35354;51.296;16.924;2023-07-31T09:10:15;2.30;;;2.08;;
49458;SDS011;35354;51.296;16.924;2023-07-31T09:12:40;3.55;;;2.38;;
49458;SDS011;35354;51.296;16.924;2023-07-31T09:15:06;3.67;;;2.28;;
49458;SDS011;35354;51.296;16.924;2023-07-31T09:17:34;3.00;;;2.30;;
49458;SDS011;35354;51.296;16.924;2023-07-31T09:20:14;3.97;;;2.53;;
49458;SDS011;35354;51.296;16.924;2023-07-31T09:22:40;3.25;;;2.50;;
49458;SDS011;35354;51.296;16.924;2023-07-31T09:25:17;5.50;;;2.60;;
49458;SDS011;35354;51.296;16.924;2023-07-31T09:27:50;3.78;;;2.75;;
49458;SDS011;35354;51.296;16.924;2023-07-31T09:30:19;5.70;;;2.63;;
49458;SDS011;35354;51.296;16.924;2023-07-31T09:32:45;5.28;;;2.85;;
49458;SDS011;35354;51.296;16.924;2023-07-31T09:35:22;3.47;;;2.25;;
49458;SDS011;35354;51.296;16.924;2023-07-31T09:37:53;3.67;;;2.65;;
49458;SDS011;35354;51.296;16.924;2023-07-31T09:40:25;3.85;;;2.45;;
49458;SDS011;35354;51.296;16.924;2023-07-31T09:42:55;2.50;;;2.03;;
49458;SDS011;35354;51.296;16.924;2023-07-31T09:45:22;2.72;;;2.22;;
49458;SDS011;35354;51.296;16.924;2023-07-31T09:47:48;4.22;;;2.40;;
49458;SDS011;35354;51.296;16.924;2023-07-31T09:50:14;3.42;;;2.30;;
49458;SDS011;35354;51.296;16.924;2023-07-31T09:52:41;2.70;;;2.30;;
49458;SDS011;35354;51.296;16.924;2023-07-31T09:55:06;4.57;;;2.65;;
49458;SDS011;35354;51.296;16.924;2023-07-31T09:57:32;3.08;;;2.42;;
49458;SDS011;35354;51.296;16.924;2023-07-31T09:59:58;2.55;;;2.20;;
49458;SDS011;35354;51.296;16.924;2023-07-31T10:02:24;3.10;;;2.40;;
49458;SDS011;35354;51.296;16.924;2023-07-31T10:04:52;2.55;;;2.28;;
49458;SDS011;35354;51.296;16.924;2023-07-31T10:07:22;2.90;;;2.20;;
49458;SDS011;35354;51.296;16.924;2023-07-31T10:09:50;2.75;;;2.28;;
49458;SDS011;35354;51.296;16.924;2023-07-31T10:12:16;4.20;;;2.75;;
49458;SDS011;35354;51.296;16.924;2023-07-31T10:14:44;3.63;;;2.63;;
49458;SDS011;35354;51.296;16.924;2023-07-31T10:17:09;3.20;;;2.72;;
49458;SDS011;35354;51.296;16.924;2023-07-31T10:19:36;3.90;;;2.47;;
49458;SDS011;35354;51.296;16.924;2023-07-31T10:22:02;2.55;;;2.20;;
49458;SDS011;35354;51.296;16.924;2023-07-31T10:24:28;5.20;;;2.47;;
49458;SDS011;35354;51.296;16.924;2023-07-31T10:26:54;2.78;;;2.47;;
49458;SDS011;35354;51.296;16.924;2023-07-31T10:29:23;3.40;;;2.17;;
49458;SDS011;35354;51.296;16.924;2023-07-31T10:31:50;4.13;;;2.40;;
49458;SDS011;35354;51.296;16.924;2023-07-31T10:34:16;4.50;;;2.55;;
49458;SDS011;35354;51.296;16.924;2023-07-31T10:36:42;4.55;;;2.45;;
49458;SDS011;35354;51.296;16.924;2023-07-31T10:42:11;2.65;;;2.10;;
49458;SDS011;35354;51.296;16.924;2023-07-31T10:44:37;6.90;;;6.20;;
49458;SDS011;35354;51.296;16.924;2023-07-31T10:47:03;4.75;;;2.10;;
49458;SDS011;35354;51.296;16.924;2023-07-31T10:49:28;2.83;;;2.17;;
49458;SDS011;35354;51.296;16.924;2023-07-31T10:51:56;4.05;;;2.95;;
49458;SDS011;35354;51.296;16.924;2023-07-31T10:54:22;2.20;;;2.00;;
49458;SDS011;35354;51.296;16.924;2023-07-31T10:56:50;2.97;;;2.40;;
49458;SDS011;35354;51.296;16.924;2023-07-31T10:59:15;3.83;;;2.28;;
49458;SDS011;35354;51.296;16.924;2023-07-31T11:04:24;2.83;;;2.50;;
49458;SDS011;35354;51.296;16.924;2023-07-31T11:06:55;3.40;;;2.40;;
49458;SDS011;35354;51.296;16.924;2023-07-31T11:09:22;2.83;;;2.50;;
49458;SDS011;35354;51.296;16.924;2023-07-31T11:11:47;3.45;;;2.30;;
49458;SDS011;35354;51.296;16.924;2023-07-31T11:14:15;2.63;;;2.33;;
49458;SDS011;35354;51.296;16.924;2023-07-31T11:16:40;2.90;;;2.60;;
49458;SDS011;35354;51.296;16.924;2023-07-31T11:19:08;2.67;;;2.35;;
49458;SDS011;35354;51.296;16.924;2023-07-31T11:21:33;3.90;;;2.72;;
49458;SDS011;35354;51.296;16.924;2023-07-31T11:23:59;3.92;;;2.38;;
49458;SDS011;35354;51.296;16.924;2023-07-31T11:26:24;4.40;;;2.45;;
49458;SDS011;35354;51.296;16.924;2023-07-31T11:28:50;4.30;;;2.20;;
49458;SDS011;35354;51.296;16.924;2023-07-31T11:31:16;2.78;;;2.35;;
49458;SDS011;35354;51.296;16.924;2023-07-31T11:33:42;3.00;;;2.15;;
49458;SDS011;35354;51.296;16.924;2023-07-31T11:36:17;2.45;;;2.10;;
49458;SDS011;35354;51.296;16.924;2023-07-31T11:38:44;2.55;;;2.33;;
49458;SDS011;35354;51.296;16.924;2023-07-31T11:41:10;3.42;;;2.50;;
49458;SDS011;35354;51.296;16.924;2023-07-31T11:43:38;4.55;;;2.50;;
49458;SDS011;35354;51.296;16.924;2023-07-31T11:46:03;5.45;;;2.75;;
49458;SDS011;35354;51.296;16.924;2023-07-31T11:48:30;2.65;;;2.10;;
49458;SDS011;35354;51.296;16.924;2023-07-31T11:50:59;2.67;;;2.10;;
49458;SDS011;35354;51.296;16.924;2023-07-31T11:53:41;2.20;;;2.00;;
49458;SDS011;35354;51.296;16.924;2023-07-31T11:56:09;3.83;;;2.50;;
49458;SDS011;35354;51.296;16.924;2023-07-31T11:58:37;2.80;;;2.28;;
49458;SDS011;35354;51.296;16.924;2023-07-31T12:01:04;4.55;;;2.15;;
49458;SDS011;35354;51.296;16.924;2023-07-31T12:03:30;2.75;;;2.30;;
49458;SDS011;35354;51.296;16.924;2023-07-31T12:05:57;3.20;;;2.72;;
49458;SDS011;35354;51.296;16.924;2023-07-31T12:08:23;3.55;;;2.63;;
49458;SDS011;35354;51.296;16.924;2023-07-31T12:10:50;3.70;;;2.70;;
49458;SDS011;35354;51.296;16.924;2023-07-31T12:13:25;3.67;;;2.67;;
49458;SDS011;35354;51.296;16.924;2023-07-31T12:15:57;3.45;;;2.40;;
49458;SDS011;35354;51.296;16.924;2023-07-31T12:18:25;4.35;;;2.72;;
49458;SDS011;35354;51.296;16.924;2023-07-31T12:20:56;4.43;;;2.85;;
49458;SDS011;35354;51.296;16.924;2023-07-31T12:23:24;6.20;;;3.40;;
49458;SDS011;35354;51.296;16.924;2023-07-31T12:28:29;5.22;;;2.80;;
49458;SDS011;35354;51.296;16.924;2023-07-31T12:30:59;3.33;;;2.78;;
49458;SDS011;35354;51.296;16.924;2023-07-31T12:33:29;3.90;;;2.95;;
49458;SDS011;35354;51.296;16.924;2023-07-31T12:35:57;4.00;;;3.08;;
49458;SDS011;35354;51.296;16.924;2023-07-31T12:38:23;3.95;;;2.60;;
49458;SDS011;35354;51.296;16.924;2023-07-31T12:40:48;3.80;;;2.63;;
49458;SDS011;35354;51.296;16.924;2023-07-31T12:43:14;5.03;;;3.70;;
49458;SDS011;35354;51.296;16.924;2023-07-31T12:45:39;5.65;;;3.72;;
49458;SDS011;35354;51.296;16.924;2023-07-31T12:48:04;6.45;;;4.05;;
49458;SDS011;35354;51.296;16.924;2023-07-31T12:50:30;4.78;;;4.13;;
49458;SDS011;35354;51.296;16.924;2023-07-31T12:52:55;6.15;;;4.00;;
49458;SDS011;35354;51.296;16.924;2023-07-31T12:55:21;3.20;;;2.90;;
49458;SDS011;35354;51.296;16.924;2023-07-31T12:57:48;7.68;;;4.00;;
49458;SDS011;35354;51.296;16.924;2023-07-31T13:00:14;4.60;;;3.63;;
49458;SDS011;35354;51.296;16.924;2023-07-31T13:02:39;5.43;;;3.63;;
49458;SDS011;35354;51.296;16.924;2023-07-31T13:05:05;5.13;;;3.55;;
49458;SDS011;35354;51.296;16.924;2023-07-31T13:07:30;3.35;;;3.05;;
49458;SDS011;35354;51.296;16.924;2023-07-31T13:09:56;4.03;;;3.35;;
49458;SDS011;35354;51.296;16.924;2023-07-31T13:12:21;4.78;;;3.50;;
49458;SDS011;35354;51.296;16.924;2023-07-31T13:14:46;5.28;;;3.33;;
49458;SDS011;35354;51.296;16.924;2023-07-31T13:17:12;4.10;;;3.05;;
49458;SDS011;35354;51.296;16.924;2023-07-31T13:19:37;4.55;;;2.90;;
49458;SDS011;35354;51.296;16.924;2023-07-31T13:22:02;5.25;;;3.30;;
49458;SDS011;35354;51.296;16.924;2023-07-31T13:24:29;3.10;;;2.80;;
49458;SDS011;35354;51.296;16.924;2023-07-31T13:26:55;4.47;;;3.05;;
49458;SDS011;35354;51.296;16.924;2023-07-31T13:29:20;3.70;;;2.97;;
49458;SDS011;35354;51.296;16.924;2023-07-31T13:31:46;4.80;;;3.55;;
49458;SDS011;35354;51.296;16.924;2023-07-31T13:34:12;3.05;;;2.72;;
49458;SDS011;35354;51.296;16.924;2023-07-31T13:36:37;6.63;;;3.15;;
49458;SDS011;35354;51.296;16.924;2023-07-31T13:39:02;4.03;;;3.58;;
49458;SDS011;35354;51.296;16.924;2023-07-31T13:41:28;5.95;;;2.90;;
49458;SDS011;35354;51.296;16.924;2023-07-31T13:43:53;3.80;;;3.13;;
49458;SDS011;35354;51.296;16.924;2023-07-31T13:46:19;3.58;;;3.28;;
49458;SDS011;35354;51.296;16.924;2023-07-31T13:48:44;6.07;;;3.85;;
49458;SDS011;35354;51.296;16.924;2023-07-31T13:51:09;3.65;;;3.28;;
49458;SDS011;35354;51.296;16.924;2023-07-31T13:53:35;4.20;;;3.13;;
49458;SDS011;35354;51.296;16.924;2023-07-31T13:56:00;4.60;;;3.20;;
49458;SDS011;35354;51.296;16.924;2023-07-31T13:58:25;3.95;;;3.55;;
49458;SDS011;35354;51.296;16.924;2023-07-31T14:00:51;3.65;;;3.35;;
49458;SDS011;35354;51.296;16.924;2023-07-31T14:03:16;5.85;;;3.50;;
49458;SDS011;35354;51.296;16.924;2023-07-31T14:05:41;3.35;;;3.05;;
49458;SDS011;35354;51.296;16.924;2023-07-31T14:08:07;4.00;;;3.60;;
49458;SDS011;35354;51.296;16.924;2023-07-31T14:10:32;3.88;;;3.55;;
49458;SDS011;35354;51.296;16.924;2023-07-31T14:12:57;3.90;;;3.60;;
49458;SDS011;35354;51.296;16.924;2023-07-31T14:15:23;4.57;;;4.15;;
49458;SDS011;35354;51.296;16.924;2023-07-31T14:17:48;4.95;;;3.92;;
49458;SDS011;35354;51.296;16.924;2023-07-31T14:20:13;4.35;;;3.85;;
49458;SDS011;35354;51.296;16.924;2023-07-31T14:22:39;3.65;;;3.33;;
49458;SDS011;35354;51.296;16.924;2023-07-31T14:25:04;3.63;;;3.00;;
49458;SDS011;35354;51.296;16.924;2023-07-31T14:27:30;5.18;;;3.05;;
49458;SDS011;35354;51.296;16.924;2023-07-31T14:29:55;3.40;;;3.10;;
49458;SDS011;35354;51.296;16.924;2023-07-31T14:32:21;8.65;;;2.92;;
49458;SDS011;35354;51.296;16.924;2023-07-31T14:34:48;2.75;;;2.28;;
49458;SDS011;35354;51.296;16.924;2023-07-31T14:37:14;5.00;;;2.63;;
49458;SDS011;35354;51.296;16.924;2023-07-31T14:39:39;3.15;;;2.50;;
49458;SDS011;35354;51.296;16.924;2023-07-31T14:42:04;4.47;;;2.45;;
49458;SDS011;35354;51.296;16.924;2023-07-31T14:44:30;2.95;;;2.60;;